Here is the Quick Look data you requested

The Data originates at the National Weather Service, and is made available here by the UAlbany Department of Atmospheric and Environmental Sciences

Surface Observations

KADW 202356Z AUTO 22005KT 10SM FEW180 33/22 A2986 RMK AO2 SLP115 60000
 T03310222 10363 20331 52003 $=
KADW 210056Z AUTO 22004KT 10SM FEW190 30/24 A2986 RMK AO2 SLP115 T02980239 $=
KADW 210156Z AUTO 25004KT 10SM FEW060 31/24 A2988 RMK AO2 SLP122 T03060237 $=
KADW 210256Z AUTO 26003KT 10SM FEW190 31/20 A2987 RMK AO2 SLP118 T03050195
 50003 $=
KADW 210356Z AUTO 25004KT 10SM SCT190 BKN210 30/20 A2988 RMK AO2 SLP122
 T02970199 $=
KADW 210456Z AUTO 26003KT 10SM BKN180 30/20 A2988 RMK AO2 SLP122 T02970197
 403630246 $=
KADW 210556Z AUTO 00000KT 10SM CLR 29/21 A2988 RMK AO2 SLP122 T02920206 10330
 20292 52005 $=
KADW 210656Z AUTO 00000KT 10SM CLR 28/21 A2988 RMK AO2 SLP122 T02810211 $=
KADW 210756Z AUTO 00000KT 10SM CLR 25/22 A2986 RMK AO2 SLP115 T02530220 $=
KADW 210856Z AUTO 00000KT 10SM CLR 25/22 A2986 RMK AO2 SLP115 T02530220 57009 $=
KADW 210956Z AUTO 00000KT 10SM CLR 26/22 A2986 RMK AO2 SLP115 T02570220 $=
KADW 211056Z AUTO 26004KT 10SM CLR 27/23 A2988 RMK AO2 SLP122 T02730229 $=
KADW 211156Z AUTO 26006KT 10SM CLR 29/22 A2991 RMK AO2 SLP132 T02930220 10294
 20250 52017 $=
KADW 211256Z AUTO 27007KT 10SM FEW170 31/22 A2992 RMK AO2 SLP135 T03140218 $=
KADW 211356Z AUTO 30010KT 10SM CLR 33/22 A2991 RMK AO2 SLP132 T03290220 $=
KADW 211456Z AUTO 28007G16KT 10SM FEW170 34/23 A2991 RMK AO2 SLP132 T03370227
 50002 $=
KADW 211556Z AUTO 26010KT 10SM FEW180 FEW200 35/22 A2990 RMK AO2 SLP128
 T03490215 $=
KADW 211656Z AUTO 25009KT 10SM FEW120 FEW150 SCT180 SCT200 36/22 A2989 RMK AO2
 SLP125 T03580216 $=
KADW 211756Z AUTO 30008KT 10SM FEW130 SCT170 37/20 A2988 RMK AO2 SLP122
 T03670200 10368 20293 57009 $=
KADW 211856Z AUTO 30007KT 10SM SCT060 SCT130 SCT160 BKN190 37/21 A2987 RMK AO2
 SLP118 T03660208 $=
KADW 211956Z AUTO 00000KT 10SM FEW190 37/21 A2985 RMK AO2 SLP112 T03690206 $=
KADW 212056Z AUTO 21009KT 10SM CLR 36/22 A2985 RMK AO2 SLP112 T03590217 56009 $=
KADW 212156Z AUTO 24008KT 10SM CLR 36/21 A2984 RMK AO2 SLP108 T03620212 $=
KADW 212256Z AUTO 22004KT 10SM CLR 35/23 A2985 RMK AO2 SLP112 T03480228 $=
KADW 212356Z AUTO 26011KT 10SM CLR 33/22 A2987 RMK AO2 LTG DSNT NW-N SLP118
 T03310222 10374 20327 53007 $=
KADW 220056Z AUTO 25006KT 10SM CLR 29/20 A2986 RMK AO2 LTG DSNT NW-N SLP115
 T02920203 $=
KADW 220356Z AUTO 26004KT 10SM SCT230 27/20 A2989 RMK AO2 SLP125 T02670195 $=
KADW 220456Z AUTO 29004KT 10SM CLR 27/20 A2990 RMK AO2 SLP129 T02670200
 403740250 $=
KADW 220556Z AUTO 00000KT 10SM CLR 26/20 A2989 RMK AO2 SLP125 T02620200 10331
 20254 55001 $=